sensor_id;sensor_type;location;lat;lon;timestamp;P1;durP1;ratioP1;P2;durP2;ratioP2
16314;SDS011;8266;52.150;4.768;2024-02-16T00:00:06;3.28;;;2.33;;
16314;SDS011;8266;52.150;4.768;2024-02-16T00:02:36;3.92;;;2.50;;
16314;SDS011;8266;52.150;4.768;2024-02-16T00:05:03;2.45;;;2.17;;
16314;SDS011;8266;52.150;4.768;2024-02-16T00:07:32;2.60;;;2.20;;
16314;SDS011;8266;52.150;4.768;2024-02-16T00:09:59;2.97;;;2.47;;
16314;SDS011;8266;52.150;4.768;2024-02-16T00:12:26;2.75;;;2.17;;
16314;SDS011;8266;52.150;4.768;2024-02-16T00:14:55;2.92;;;2.20;;
16314;SDS011;8266;52.150;4.768;2024-02-16T00:17:22;3.67;;;2.40;;
16314;SDS011;8266;52.150;4.768;2024-02-16T00:19:51;2.92;;;2.20;;
16314;SDS011;8266;52.150;4.768;2024-02-16T00:22:19;2.30;;;2.10;;
16314;SDS011;8266;52.150;4.768;2024-02-16T00:24:46;3.08;;;2.42;;
16314;SDS011;8266;52.150;4.768;2024-02-16T00:27:13;5.18;;;2.38;;
16314;SDS011;8266;52.150;4.768;2024-02-16T00:29:41;5.00;;;2.15;;
16314;SDS011;8266;52.150;4.768;2024-02-16T00:32:10;2.35;;;2.15;;
16314;SDS011;8266;52.150;4.768;2024-02-16T00:34:37;2.60;;;2.20;;
16314;SDS011;8266;52.150;4.768;2024-02-16T00:37:06;2.70;;;2.40;;
16314;SDS011;8266;52.150;4.768;2024-02-16T00:39:35;2.63;;;2.42;;
16314;SDS011;8266;52.150;4.768;2024-02-16T00:42:02;2.20;;;2.00;;
16314;SDS011;8266;52.150;4.768;2024-02-16T00:44:29;2.80;;;2.25;;
16314;SDS011;8266;52.150;4.768;2024-02-16T00:46:56;3.35;;;2.47;;
16314;SDS011;8266;52.150;4.768;2024-02-16T00:49:24;3.75;;;2.40;;
16314;SDS011;8266;52.150;4.768;2024-02-16T00:51:51;2.97;;;2.35;;
16314;SDS011;8266;52.150;4.768;2024-02-16T00:54:18;3.28;;;2.35;;
16314;SDS011;8266;52.150;4.768;2024-02-16T00:56:45;2.47;;;2.03;;
16314;SDS011;8266;52.150;4.768;2024-02-16T00:59:13;3.00;;;2.22;;
16314;SDS011;8266;52.150;4.768;2024-02-16T01:01:40;3.55;;;2.22;;
16314;SDS011;8266;52.150;4.768;2024-02-16T01:04:07;3.15;;;2.30;;
16314;SDS011;8266;52.150;4.768;2024-02-16T01:06:36;2.10;;;1.90;;
16314;SDS011;8266;52.150;4.768;2024-02-16T01:09:03;3.33;;;2.25;;
16314;SDS011;8266;52.150;4.768;2024-02-16T01:11:30;3.13;;;2.42;;
16314;SDS011;8266;52.150;4.768;2024-02-16T01:13:57;3.67;;;2.40;;
16314;SDS011;8266;52.150;4.768;2024-02-16T01:16:24;2.78;;;2.40;;
16314;SDS011;8266;52.150;4.768;2024-02-16T01:18:51;3.30;;;2.38;;
16314;SDS011;8266;52.150;4.768;2024-02-16T01:21:18;2.40;;;2.13;;
16314;SDS011;8266;52.150;4.768;2024-02-16T01:23:47;2.67;;;2.28;;
16314;SDS011;8266;52.150;4.768;2024-02-16T01:26:14;2.47;;;2.28;;
16314;SDS011;8266;52.150;4.768;2024-02-16T01:28:40;4.13;;;2.78;;
16314;SDS011;8266;52.150;4.768;2024-02-16T01:31:07;2.97;;;2.08;;
16314;SDS011;8266;52.150;4.768;2024-02-16T01:33:36;4.05;;;2.45;;
16314;SDS011;8266;52.150;4.768;2024-02-16T01:36:04;3.35;;;2.72;;
16314;SDS011;8266;52.150;4.768;2024-02-16T01:38:31;3.78;;;2.83;;
16314;SDS011;8266;52.150;4.768;2024-02-16T01:41:00;3.28;;;2.50;;
16314;SDS011;8266;52.150;4.768;2024-02-16T01:43:27;3.67;;;2.42;;
16314;SDS011;8266;52.150;4.768;2024-02-16T01:45:54;4.43;;;2.25;;
16314;SDS011;8266;52.150;4.768;2024-02-16T01:48:24;2.92;;;2.50;;
16314;SDS011;8266;52.150;4.768;2024-02-16T01:50:51;3.65;;;2.10;;
16314;SDS011;8266;52.150;4.768;2024-02-16T01:53:19;3.95;;;2.95;;
16314;SDS011;8266;52.150;4.768;2024-02-16T01:55:47;4.80;;;2.40;;
16314;SDS011;8266;52.150;4.768;2024-02-16T01:58:16;2.95;;;2.00;;
16314;SDS011;8266;52.150;4.768;2024-02-16T02:00:43;3.72;;;2.60;;
16314;SDS011;8266;52.150;4.768;2024-02-16T02:03:10;4.22;;;2.38;;
16314;SDS011;8266;52.150;4.768;2024-02-16T02:05:43;4.05;;;2.38;;
16314;SDS011;8266;52.150;4.768;2024-02-16T02:08:11;2.03;;;1.85;;
16314;SDS011;8266;52.150;4.768;2024-02-16T02:10:39;3.30;;;2.45;;
16314;SDS011;8266;52.150;4.768;2024-02-16T02:13:06;3.95;;;2.97;;
16314;SDS011;8266;52.150;4.768;2024-02-16T02:15:35;2.10;;;1.90;;
16314;SDS011;8266;52.150;4.768;2024-02-16T02:18:02;2.47;;;2.28;;
16314;SDS011;8266;52.150;4.768;2024-02-16T02:20:29;2.25;;;2.05;;
16314;SDS011;8266;52.150;4.768;2024-02-16T02:22:57;3.55;;;2.60;;
16314;SDS011;8266;52.150;4.768;2024-02-16T02:25:24;3.75;;;2.35;;
16314;SDS011;8266;52.150;4.768;2024-02-16T02:27:53;2.42;;;2.22;;
16314;SDS011;8266;52.150;4.768;2024-02-16T02:30:20;3.45;;;2.25;;
16314;SDS011;8266;52.150;4.768;2024-02-16T02:32:49;3.63;;;2.53;;
16314;SDS011;8266;52.150;4.768;2024-02-16T02:35:17;2.75;;;2.42;;
16314;SDS011;8266;52.150;4.768;2024-02-16T02:37:44;2.25;;;1.98;;
16314;SDS011;8266;52.150;4.768;2024-02-16T02:40:13;2.47;;;2.17;;
16314;SDS011;8266;52.150;4.768;2024-02-16T02:42:40;3.67;;;2.22;;
16314;SDS011;8266;52.150;4.768;2024-02-16T02:45:07;2.45;;;2.05;;
16314;SDS011;8266;52.150;4.768;2024-02-16T02:47:35;3.80;;;2.42;;
16314;SDS011;8266;52.150;4.768;2024-02-16T02:50:02;2.90;;;2.35;;
16314;SDS011;8266;52.150;4.768;2024-02-16T02:52:29;3.80;;;2.38;;
16314;SDS011;8266;52.150;4.768;2024-02-16T02:54:56;3.00;;;2.40;;
16314;SDS011;8266;52.150;4.768;2024-02-16T02:57:25;2.58;;;2.33;;
16314;SDS011;8266;52.150;4.768;2024-02-16T02:59:52;4.18;;;2.40;;
16314;SDS011;8266;52.150;4.768;2024-02-16T03:02:19;3.63;;;2.10;;
16314;SDS011;8266;52.150;4.768;2024-02-16T03:04:46;4.07;;;2.38;;
16314;SDS011;8266;52.150;4.768;2024-02-16T03:07:14;4.07;;;2.60;;
16314;SDS011;8266;52.150;4.768;2024-02-16T03:09:41;3.17;;;2.35;;
16314;SDS011;8266;52.150;4.768;2024-02-16T03:12:08;3.00;;;2.42;;
16314;SDS011;8266;52.150;4.768;2024-02-16T03:14:38;2.97;;;2.20;;
16314;SDS011;8266;52.150;4.768;2024-02-16T03:17:04;2.55;;;2.08;;
16314;SDS011;8266;52.150;4.768;2024-02-16T03:19:31;3.10;;;2.60;;
16314;SDS011;8266;52.150;4.768;2024-02-16T03:22:00;4.25;;;2.65;;
16314;SDS011;8266;52.150;4.768;2024-02-16T03:24:27;2.88;;;2.30;;
16314;SDS011;8266;52.150;4.768;2024-02-16T03:26:54;2.58;;;2.33;;
16314;SDS011;8266;52.150;4.768;2024-02-16T03:29:21;3.78;;;2.78;;
16314;SDS011;8266;52.150;4.768;2024-02-16T03:31:51;3.10;;;2.45;;
16314;SDS011;8266;52.150;4.768;2024-02-16T03:34:17;3.70;;;2.50;;
16314;SDS011;8266;52.150;4.768;2024-02-16T03:36:44;3.35;;;2.35;;
16314;SDS011;8266;52.150;4.768;2024-02-16T03:39:11;2.35;;;2.05;;
16314;SDS011;8266;52.150;4.768;2024-02-16T03:41:38;3.60;;;2.72;;
16314;SDS011;8266;52.150;4.768;2024-02-16T03:44:05;2.40;;;2.08;;
16314;SDS011;8266;52.150;4.768;2024-02-16T03:46:33;3.05;;;2.20;;
16314;SDS011;8266;52.150;4.768;2024-02-16T03:49:01;3.05;;;2.67;;
16314;SDS011;8266;52.150;4.768;2024-02-16T03:51:28;4.85;;;2.60;;
16314;SDS011;8266;52.150;4.768;2024-02-16T03:53:55;2.92;;;2.45;;
16314;SDS011;8266;52.150;4.768;2024-02-16T03:56:22;2.80;;;2.40;;
16314;SDS011;8266;52.150;4.768;2024-02-16T03:58:52;5.80;;;2.75;;
16314;SDS011;8266;52.150;4.768;2024-02-16T04:01:19;3.20;;;2.60;;
16314;SDS011;8266;52.150;4.768;2024-02-16T04:03:47;2.95;;;2.55;;
16314;SDS011;8266;52.150;4.768;2024-02-16T04:06:15;2.95;;;2.35;;
16314;SDS011;8266;52.150;4.768;2024-02-16T04:08:42;2.85;;;2.53;;
16314;SDS011;8266;52.150;4.768;2024-02-16T04:11:10;2.83;;;2.60;;
16314;SDS011;8266;52.150;4.768;2024-02-16T04:13:38;4.30;;;2.53;;
16314;SDS011;8266;52.150;4.768;2024-02-16T04:16:05;2.88;;;2.42;;
16314;SDS011;8266;52.150;4.768;2024-02-16T04:18:32;3.83;;;2.85;;
16314;SDS011;8266;52.150;4.768;2024-02-16T04:20:59;2.58;;;2.03;;
16314;SDS011;8266;52.150;4.768;2024-02-16T04:23:28;2.65;;;2.45;;
16314;SDS011;8266;52.150;4.768;2024-02-16T04:25:55;4.78;;;2.83;;
16314;SDS011;8266;52.150;4.768;2024-02-16T04:28:22;3.97;;;2.42;;
16314;SDS011;8266;52.150;4.768;2024-02-16T04:30:50;2.85;;;2.47;;
16314;SDS011;8266;52.150;4.768;2024-02-16T04:33:17;3.05;;;2.15;;
16314;SDS011;8266;52.150;4.768;2024-02-16T04:35:44;2.78;;;2.38;;
16314;SDS011;8266;52.150;4.768;2024-02-16T04:38:13;2.97;;;2.55;;
16314;SDS011;8266;52.150;4.768;2024-02-16T04:40:41;4.57;;;2.50;;
16314;SDS011;8266;52.150;4.768;2024-02-16T04:43:08;3.13;;;2.55;;
16314;SDS011;8266;52.150;4.768;2024-02-16T04:45:35;2.85;;;2.63;;
16314;SDS011;8266;52.150;4.768;2024-02-16T04:48:03;2.70;;;2.38;;
16314;SDS011;8266;52.150;4.768;2024-02-16T04:50:31;2.90;;;2.60;;
16314;SDS011;8266;52.150;4.768;2024-02-16T04:52:59;2.45;;;2.25;;
16314;SDS011;8266;52.150;4.768;2024-02-16T04:55:27;2.15;;;1.95;;
16314;SDS011;8266;52.150;4.768;2024-02-16T04:57:56;3.10;;;2.22;;
16314;SDS011;8266;52.150;4.768;2024-02-16T05:00:23;2.78;;;2.40;;
16314;SDS011;8266;52.150;4.768;2024-02-16T05:02:50;5.22;;;2.83;;
16314;SDS011;8266;52.150;4.768;2024-02-16T05:05:18;4.65;;;2.50;;
16314;SDS011;8266;52.150;4.768;2024-02-16T05:07:46;3.60;;;2.67;;
16314;SDS011;8266;52.150;4.768;2024-02-16T05:10:15;3.15;;;2.45;;
16314;SDS011;8266;52.150;4.768;2024-02-16T05:12:42;3.35;;;2.78;;
16314;SDS011;8266;52.150;4.768;2024-02-16T05:15:10;3.45;;;2.85;;
16314;SDS011;8266;52.150;4.768;2024-02-16T05:17:39;4.05;;;2.90;;
16314;SDS011;8266;52.150;4.768;2024-02-16T05:20:08;3.45;;;2.58;;
16314;SDS011;8266;52.150;4.768;2024-02-16T05:22:41;3.58;;;2.50;;
16314;SDS011;8266;52.150;4.768;2024-02-16T05:25:10;5.43;;;2.53;;
16314;SDS011;8266;52.150;4.768;2024-02-16T05:27:38;2.40;;;2.20;;
16314;SDS011;8266;52.150;4.768;2024-02-16T05:30:05;3.88;;;2.72;;
16314;SDS011;8266;52.150;4.768;2024-02-16T05:32:37;3.60;;;2.92;;
16314;SDS011;8266;52.150;4.768;2024-02-16T05:35:04;3.67;;;2.30;;
16314;SDS011;8266;52.150;4.768;2024-02-16T05:37:36;3.47;;;2.40;;
16314;SDS011;8266;52.150;4.768;2024-02-16T05:40:06;3.28;;;2.58;;
16314;SDS011;8266;52.150;4.768;2024-02-16T05:42:44;3.65;;;2.67;;
16314;SDS011;8266;52.150;4.768;2024-02-16T05:45:12;3.13;;;2.28;;
16314;SDS011;8266;52.150;4.768;2024-02-16T05:47:41;3.20;;;2.70;;
16314;SDS011;8266;52.150;4.768;2024-02-16T05:50:10;3.80;;;2.97;;
16314;SDS011;8266;52.150;4.768;2024-02-16T05:52:38;2.47;;;2.28;;
16314;SDS011;8266;52.150;4.768;2024-02-16T05:55:06;3.45;;;2.60;;
16314;SDS011;8266;52.150;4.768;2024-02-16T05:57:34;3.20;;;2.55;;
16314;SDS011;8266;52.150;4.768;2024-02-16T06:00:03;3.13;;;2.55;;
16314;SDS011;8266;52.150;4.768;2024-02-16T06:02:30;2.92;;;2.63;;
16314;SDS011;8266;52.150;4.768;2024-02-16T06:04:59;4.90;;;2.65;;
16314;SDS011;8266;52.150;4.768;2024-02-16T06:07:27;2.85;;;2.53;;
16314;SDS011;8266;52.150;4.768;2024-02-16T06:09:55;3.90;;;2.90;;
16314;SDS011;8266;52.150;4.768;2024-02-16T06:12:22;3.25;;;2.95;;
16314;SDS011;8266;52.150;4.768;2024-02-16T06:14:50;4.50;;;3.30;;
16314;SDS011;8266;52.150;4.768;2024-02-16T06:17:18;3.33;;;3.03;;
16314;SDS011;8266;52.150;4.768;2024-02-16T06:19:46;3.35;;;3.05;;
16314;SDS011;8266;52.150;4.768;2024-02-16T06:22:15;3.05;;;2.75;;
16314;SDS011;8266;52.150;4.768;2024-02-16T06:24:43;3.42;;;3.10;;
16314;SDS011;8266;52.150;4.768;2024-02-16T06:27:10;4.40;;;3.13;;
16314;SDS011;8266;52.150;4.768;2024-02-16T06:29:38;3.72;;;2.70;;
16314;SDS011;8266;52.150;4.768;2024-02-16T06:32:05;4.25;;;3.28;;
16314;SDS011;8266;52.150;4.768;2024-02-16T06:34:32;5.28;;;3.10;;
16314;SDS011;8266;52.150;4.768;2024-02-16T06:36:59;6.47;;;3.13;;
16314;SDS011;8266;52.150;4.768;2024-02-16T06:39:28;3.70;;;3.08;;
16314;SDS011;8266;52.150;4.768;2024-02-16T06:41:56;3.03;;;2.53;;
16314;SDS011;8266;52.150;4.768;2024-02-16T06:44:23;5.50;;;2.72;;
16314;SDS011;8266;52.150;4.768;2024-02-16T06:46:50;5.53;;;3.00;;
16314;SDS011;8266;52.150;4.768;2024-02-16T06:49:17;4.10;;;2.97;;
16314;SDS011;8266;52.150;4.768;2024-02-16T06:51:44;6.03;;;3.17;;
16314;SDS011;8266;52.150;4.768;2024-02-16T06:54:11;3.75;;;2.97;;
16314;SDS011;8266;52.150;4.768;2024-02-16T06:56:41;3.53;;;2.70;;
16314;SDS011;8266;52.150;4.768;2024-02-16T06:59:09;4.43;;;3.35;;
16314;SDS011;8266;52.150;4.768;2024-02-16T07:01:36;3.40;;;3.10;;
16314;SDS011;8266;52.150;4.768;2024-02-16T07:04:03;5.00;;;2.90;;
16314;SDS011;8266;52.150;4.768;2024-02-16T07:06:31;3.70;;;3.03;;
16314;SDS011;8266;52.150;4.768;2024-02-16T07:08:58;3.45;;;2.97;;
16314;SDS011;8266;52.150;4.768;2024-02-16T07:11:25;3.40;;;3.10;;
16314;SDS011;8266;52.150;4.768;2024-02-16T07:13:53;4.38;;;2.83;;
16314;SDS011;8266;52.150;4.768;2024-02-16T07:16:20;3.65;;;3.20;;
16314;SDS011;8266;52.150;4.768;2024-02-16T07:18:47;4.45;;;3.22;;
16314;SDS011;8266;52.150;4.768;2024-02-16T07:21:14;4.30;;;3.13;;
16314;SDS011;8266;52.150;4.768;2024-02-16T07:23:44;4.22;;;3.45;;
16314;SDS011;8266;52.150;4.768;2024-02-16T07:26:11;6.15;;;3.20;;
16314;SDS011;8266;52.150;4.768;2024-02-16T07:28:39;4.10;;;3.08;;
16314;SDS011;8266;52.150;4.768;2024-02-16T07:31:08;3.50;;;3.03;;
16314;SDS011;8266;52.150;4.768;2024-02-16T07:33:37;5.03;;;3.30;;
16314;SDS011;8266;52.150;4.768;2024-02-16T07:36:04;4.45;;;3.30;;
16314;SDS011;8266;52.150;4.768;2024-02-16T07:38:32;4.22;;;2.95;;
16314;SDS011;8266;52.150;4.768;2024-02-16T07:41:00;4.75;;;3.30;;
16314;SDS011;8266;52.150;4.768;2024-02-16T07:43:27;5.38;;;3.30;;
16314;SDS011;8266;52.150;4.768;2024-02-16T07:45:54;5.95;;;3.10;;
16314;SDS011;8266;52.150;4.768;2024-02-16T07:48:23;3.92;;;3.25;;
16314;SDS011;8266;52.150;4.768;2024-02-16T07:50:52;4.22;;;3.13;;
16314;SDS011;8266;52.150;4.768;2024-02-16T07:53:19;6.80;;;3.72;;
16314;SDS011;8266;52.150;4.768;2024-02-16T07:55:46;5.97;;;3.20;;
16314;SDS011;8266;52.150;4.768;2024-02-16T07:58:13;4.38;;;3.25;;
16314;SDS011;8266;52.150;4.768;2024-02-16T08:00:40;4.30;;;3.30;;
16314;SDS011;8266;52.150;4.768;2024-02-16T08:03:07;5.30;;;3.38;;
16314;SDS011;8266;52.150;4.768;2024-02-16T08:05:36;3.13;;;2.83;;
16314;SDS011;8266;52.150;4.768;2024-02-16T08:08:03;3.75;;;3.20;;
16314;SDS011;8266;52.150;4.768;2024-02-16T08:10:30;4.28;;;2.85;;
16314;SDS011;8266;52.150;4.768;2024-02-16T08:12:57;5.00;;;3.22;;
16314;SDS011;8266;52.150;4.768;2024-02-16T08:15:24;4.07;;;3.63;;
16314;SDS011;8266;52.150;4.768;2024-02-16T08:17:51;3.10;;;2.80;;
16314;SDS011;8266;52.150;4.768;2024-02-16T08:20:19;5.22;;;3.65;;
16314;SDS011;8266;52.150;4.768;2024-02-16T08:22:48;4.90;;;3.60;;
16314;SDS011;8266;52.150;4.768;2024-02-16T08:25:15;5.20;;;3.10;;
16314;SDS011;8266;52.150;4.768;2024-02-16T08:27:42;3.42;;;2.88;;
16314;SDS011;8266;52.150;4.768;2024-02-16T08:30:10;5.50;;;3.28;;
16314;SDS011;8266;52.150;4.768;2024-02-16T08:32:37;8.80;;;3.63;;
16314;SDS011;8266;52.150;4.768;2024-02-16T08:35:04;4.32;;;3.15;;
16314;SDS011;8266;52.150;4.768;2024-02-16T08:37:32;5.70;;;3.58;;
16314;SDS011;8266;52.150;4.768;2024-02-16T08:40:00;4.47;;;3.90;;
16314;SDS011;8266;52.150;4.768;2024-02-16T08:42:29;3.78;;;3.30;;
16314;SDS011;8266;52.150;4.768;2024-02-16T08:44:56;4.68;;;3.40;;
16314;SDS011;8266;52.150;4.768;2024-02-16T08:47:25;7.25;;;3.60;;
16314;SDS011;8266;52.150;4.768;2024-02-16T08:49:52;5.22;;;3.67;;
16314;SDS011;8266;52.150;4.768;2024-02-16T08:52:19;4.40;;;3.35;;
16314;SDS011;8266;52.150;4.768;2024-02-16T08:54:46;6.30;;;3.33;;
16314;SDS011;8266;52.150;4.768;2024-02-16T08:57:15;5.47;;;3.50;;
16314;SDS011;8266;52.150;4.768;2024-02-16T08:59:42;5.22;;;3.50;;
16314;SDS011;8266;52.150;4.768;2024-02-16T09:02:10;8.23;;;3.95;;
16314;SDS011;8266;52.150;4.768;2024-02-16T09:04:37;13.07;;;4.53;;
16314;SDS011;8266;52.150;4.768;2024-02-16T09:07:05;6.60;;;3.90;;
16314;SDS011;8266;52.150;4.768;2024-02-16T09:09:32;6.60;;;4.00;;
16314;SDS011;8266;52.150;4.768;2024-02-16T09:11:59;5.82;;;3.78;;
16314;SDS011;8266;52.150;4.768;2024-02-16T09:14:28;4.07;;;3.67;;
16314;SDS011;8266;52.150;4.768;2024-02-16T09:16:57;4.18;;;3.70;;
16314;SDS011;8266;52.150;4.768;2024-02-16T09:19:24;4.68;;;3.65;;
16314;SDS011;8266;52.150;4.768;2024-02-16T09:21:51;6.50;;;3.88;;
16314;SDS011;8266;52.150;4.768;2024-02-16T09:24:19;8.55;;;4.25;;
16314;SDS011;8266;52.150;4.768;2024-02-16T09:26:50;9.60;;;4.03;;
16314;SDS011;8266;52.150;4.768;2024-02-16T09:29:17;9.65;;;4.10;;
16314;SDS011;8266;52.150;4.768;2024-02-16T09:31:48;9.70;;;4.18;;
16314;SDS011;8266;52.150;4.768;2024-02-16T09:34:15;5.32;;;4.07;;
16314;SDS011;8266;52.150;4.768;2024-02-16T09:36:42;5.35;;;4.13;;
16314;SDS011;8266;52.150;4.768;2024-02-16T09:39:09;8.70;;;4.57;;
16314;SDS011;8266;52.150;4.768;2024-02-16T09:41:37;7.88;;;4.78;;
16314;SDS011;8266;52.150;4.768;2024-02-16T09:44:08;9.52;;;4.80;;
16314;SDS011;8266;52.150;4.768;2024-02-16T09:46:35;7.65;;;5.28;;
16314;SDS011;8266;52.150;4.768;2024-02-16T09:49:04;8.20;;;5.80;;
16314;SDS011;8266;52.150;4.768;2024-02-16T09:51:31;8.27;;;5.78;;
16314;SDS011;8266;52.150;4.768;2024-02-16T09:54:01;10.52;;;6.25;;
16314;SDS011;8266;52.150;4.768;2024-02-16T09:56:30;12.30;;;7.50;;
16314;SDS011;8266;52.150;4.768;2024-02-16T09:58:59;16.55;;;8.35;;
16314;SDS011;8266;52.150;4.768;2024-02-16T10:01:26;16.52;;;8.68;;
16314;SDS011;8266;52.150;4.768;2024-02-16T10:03:53;21.63;;;10.10;;
16314;SDS011;8266;52.150;4.768;2024-02-16T10:06:24;16.23;;;8.48;;
16314;SDS011;8266;52.150;4.768;2024-02-16T10:08:52;14.82;;;8.95;;
16314;SDS011;8266;52.150;4.768;2024-02-16T10:11:22;17.40;;;8.40;;
16314;SDS011;8266;52.150;4.768;2024-02-16T10:13:56;13.60;;;8.55;;
16314;SDS011;8266;52.150;4.768;2024-02-16T10:16:23;14.85;;;8.43;;
16314;SDS011;8266;52.150;4.768;2024-02-16T10:18:51;13.13;;;8.27;;
16314;SDS011;8266;52.150;4.768;2024-02-16T10:21:26;14.35;;;7.95;;
16314;SDS011;8266;52.150;4.768;2024-02-16T10:23:59;12.60;;;7.72;;
16314;SDS011;8266;52.150;4.768;2024-02-16T10:26:27;12.68;;;7.70;;
16314;SDS011;8266;52.150;4.768;2024-02-16T10:28:54;10.73;;;7.05;;
16314;SDS011;8266;52.150;4.768;2024-02-16T10:31:22;12.25;;;6.50;;
16314;SDS011;8266;52.150;4.768;2024-02-16T10:33:54;9.73;;;6.55;;
16314;SDS011;8266;52.150;4.768;2024-02-16T10:36:28;8.95;;;6.20;;
16314;SDS011;8266;52.150;4.768;2024-02-16T10:38:55;11.32;;;6.03;;
16314;SDS011;8266;52.150;4.768;2024-02-16T10:41:25;9.23;;;5.82;;
16314;SDS011;8266;52.150;4.768;2024-02-16T10:43:54;8.68;;;5.45;;
16314;SDS011;8266;52.150;4.768;2024-02-16T10:46:22;7.05;;;5.25;;
16314;SDS011;8266;52.150;4.768;2024-02-16T10:48:50;7.07;;;5.32;;
16314;SDS011;8266;52.150;4.768;2024-02-16T10:51:19;9.15;;;5.18;;
16314;SDS011;8266;52.150;4.768;2024-02-16T10:53:52;8.10;;;5.60;;
16314;SDS011;8266;52.150;4.768;2024-02-16T10:56:28;6.70;;;4.78;;
16314;SDS011;8266;52.150;4.768;2024-02-16T10:59:00;5.75;;;5.05;;
16314;SDS011;8266;52.150;4.768;2024-02-16T11:01:31;7.85;;;4.97;;
16314;SDS011;8266;52.150;4.768;2024-02-16T11:04:03;6.78;;;4.10;;
16314;SDS011;8266;52.150;4.768;2024-02-16T11:06:33;4.93;;;3.53;;
16314;SDS011;8266;52.150;4.768;2024-02-16T11:09:22;5.03;;;3.88;;
16314;SDS011;8266;52.150;4.768;2024-02-16T11:11:51;6.13;;;4.55;;
16314;SDS011;8266;52.150;4.768;2024-02-16T11:14:20;5.85;;;3.72;;
16314;SDS011;8266;52.150;4.768;2024-02-16T11:16:48;6.30;;;4.15;;
16314;SDS011;8266;52.150;4.768;2024-02-16T11:19:16;4.60;;;4.10;;
16314;SDS011;8266;52.150;4.768;2024-02-16T11:24:33;4.07;;;3.70;;
16314;SDS011;8266;52.150;4.768;2024-02-16T11:27:01;5.53;;;3.75;;
16314;SDS011;8266;52.150;4.768;2024-02-16T11:29:32;4.22;;;3.63;;
16314;SDS011;8266;52.150;4.768;2024-02-16T11:32:01;5.28;;;3.47;;
16314;SDS011;8266;52.150;4.768;2024-02-16T11:34:29;4.20;;;3.40;;
16314;SDS011;8266;52.150;4.768;2024-02-16T11:36:56;3.63;;;3.25;;
16314;SDS011;8266;52.150;4.768;2024-02-16T11:39:24;5.20;;;3.05;;
16314;SDS011;8266;52.150;4.768;2024-02-16T11:42:03;4.30;;;2.75;;
16314;SDS011;8266;52.150;4.768;2024-02-16T11:44:31;4.03;;;2.80;;
16314;SDS011;8266;52.150;4.768;2024-02-16T11:46:59;3.25;;;2.40;;
16314;SDS011;8266;52.150;4.768;2024-02-16T11:49:27;3.00;;;2.28;;
16314;SDS011;8266;52.150;4.768;2024-02-16T11:51:55;2.97;;;2.33;;
16314;SDS011;8266;52.150;4.768;2024-02-16T11:54:22;2.33;;;1.90;;
16314;SDS011;8266;52.150;4.768;2024-02-16T11:56:49;2.45;;;2.00;;
16314;SDS011;8266;52.150;4.768;2024-02-16T11:59:19;1.77;;;1.67;;
16314;SDS011;8266;52.150;4.768;2024-02-16T12:01:53;2.42;;;1.90;;
16314;SDS011;8266;52.150;4.768;2024-02-16T12:04:21;2.25;;;2.05;;
16314;SDS011;8266;52.150;4.768;2024-02-16T12:06:52;3.35;;;2.55;;
16314;SDS011;8266;52.150;4.768;2024-02-16T12:09:21;3.13;;;2.17;;
16314;SDS011;8266;52.150;4.768;2024-02-16T12:11:49;3.30;;;1.90;;
16314;SDS011;8266;52.150;4.768;2024-02-16T12:14:20;2.35;;;1.85;;
16314;SDS011;8266;52.150;4.768;2024-02-16T12:16:49;3.33;;;1.90;;
16314;SDS011;8266;52.150;4.768;2024-02-16T12:19:16;3.53;;;1.75;;
16314;SDS011;8266;52.150;4.768;2024-02-16T12:21:48;2.22;;;1.85;;
16314;SDS011;8266;52.150;4.768;2024-02-16T12:24:15;3.25;;;1.95;;
16314;SDS011;8266;52.150;4.768;2024-02-16T12:26:42;3.05;;;1.80;;
16314;SDS011;8266;52.150;4.768;2024-02-16T12:29:09;1.65;;;1.50;;
16314;SDS011;8266;52.150;4.768;2024-02-16T12:31:39;3.17;;;1.77;;
16314;SDS011;8266;52.150;4.768;2024-02-16T12:34:08;3.13;;;1.98;;
16314;SDS011;8266;52.150;4.768;2024-02-16T12:36:36;3.28;;;1.60;;
16314;SDS011;8266;52.150;4.768;2024-02-16T12:39:03;4.05;;;1.65;;
16314;SDS011;8266;52.150;4.768;2024-02-16T12:41:31;2.67;;;1.80;;
16314;SDS011;8266;52.150;4.768;2024-02-16T12:43:58;2.70;;;1.75;;
16314;SDS011;8266;52.150;4.768;2024-02-16T12:46:26;4.13;;;2.10;;
16314;SDS011;8266;52.150;4.768;2024-02-16T12:48:54;3.85;;;2.83;;
16314;SDS011;8266;52.150;4.768;2024-02-16T12:51:21;3.03;;;2.03;;
16314;SDS011;8266;52.150;4.768;2024-02-16T12:53:49;4.53;;;3.00;;
16314;SDS011;8266;52.150;4.768;2024-02-16T12:56:16;5.50;;;2.90;;
16314;SDS011;8266;52.150;4.768;2024-02-16T12:58:43;3.95;;;3.38;;
16314;SDS011;8266;52.150;4.768;2024-02-16T13:01:10;5.50;;;3.25;;
16314;SDS011;8266;52.150;4.768;2024-02-16T13:03:38;4.60;;;3.38;;
16314;SDS011;8266;52.150;4.768;2024-02-16T13:06:06;4.70;;;3.05;;
16314;SDS011;8266;52.150;4.768;2024-02-16T13:08:34;4.60;;;3.65;;
16314;SDS011;8266;52.150;4.768;2024-02-16T13:11:02;5.18;;;3.88;;
16314;SDS011;8266;52.150;4.768;2024-02-16T13:13:29;5.38;;;3.15;;
16314;SDS011;8266;52.150;4.768;2024-02-16T13:15:57;4.63;;;3.50;;
16314;SDS011;8266;52.150;4.768;2024-02-16T13:18:24;6.03;;;3.20;;
16314;SDS011;8266;52.150;4.768;2024-02-16T13:20:51;5.72;;;3.42;;
16314;SDS011;8266;52.150;4.768;2024-02-16T13:23:20;5.57;;;4.03;;
16314;SDS011;8266;52.150;4.768;2024-02-16T13:25:47;6.63;;;4.35;;
16314;SDS011;8266;52.150;4.768;2024-02-16T13:28:14;8.18;;;4.43;;
16314;SDS011;8266;52.150;4.768;2024-02-16T13:30:42;6.80;;;3.90;;
16314;SDS011;8266;52.150;4.768;2024-02-16T13:33:09;5.80;;;3.90;;
16314;SDS011;8266;52.150;4.768;2024-02-16T13:35:36;4.40;;;3.90;;
16314;SDS011;8266;52.150;4.768;2024-02-16T13:38:04;3.85;;;3.42;;
16314;SDS011;8266;52.150;4.768;2024-02-16T13:40:32;6.00;;;4.03;;
16314;SDS011;8266;52.150;4.768;2024-02-16T13:43:01;4.00;;;3.55;;
16314;SDS011;8266;52.150;4.768;2024-02-16T13:45:30;4.45;;;3.97;;
16314;SDS011;8266;52.150;4.768;2024-02-16T13:48:14;5.18;;;3.58;;
16314;SDS011;8266;52.150;4.768;2024-02-16T13:50:43;5.30;;;3.75;;
16314;SDS011;8266;52.150;4.768;2024-02-16T13:53:10;7.85;;;3.72;;
16314;SDS011;8266;52.150;4.768;2024-02-16T13:55:40;4.53;;;3.50;;
16314;SDS011;8266;52.150;4.768;2024-02-16T13:58:09;4.80;;;3.83;;
16314;SDS011;8266;52.150;4.768;2024-02-16T14:00:36;5.22;;;3.42;;
16314;SDS011;8266;52.150;4.768;2024-02-16T14:03:03;5.35;;;3.97;;
16314;SDS011;8266;52.150;4.768;2024-02-16T14:05:33;6.53;;;4.82;;
16314;SDS011;8266;52.150;4.768;2024-02-16T14:08:01;5.53;;;4.90;;
16314;SDS011;8266;52.150;4.768;2024-02-16T14:10:28;8.32;;;5.60;;
16314;SDS011;8266;52.150;4.768;2024-02-16T14:12:57;7.60;;;5.63;;
16314;SDS011;8266;52.150;4.768;2024-02-16T14:15:24;5.95;;;5.35;;
16314;SDS011;8266;52.150;4.768;2024-02-16T14:17:51;8.20;;;5.57;;
16314;SDS011;8266;52.150;4.768;2024-02-16T14:20:18;5.18;;;4.47;;
16314;SDS011;8266;52.150;4.768;2024-02-16T14:22:47;5.50;;;5.00;;
16314;SDS011;8266;52.150;4.768;2024-02-16T14:25:14;5.10;;;4.60;;
16314;SDS011;8266;52.150;4.768;2024-02-16T14:27:41;5.05;;;4.55;;
16314;SDS011;8266;52.150;4.768;2024-02-16T14:30:11;5.68;;;5.07;;
16314;SDS011;8266;52.150;4.768;2024-02-16T14:32:38;7.10;;;5.22;;
16314;SDS011;8266;52.150;4.768;2024-02-16T14:35:06;7.53;;;4.43;;
16314;SDS011;8266;52.150;4.768;2024-02-16T14:37:34;5.25;;;4.75;;
16314;SDS011;8266;52.150;4.768;2024-02-16T14:40:02;4.25;;;3.85;;
16314;SDS011;8266;52.150;4.768;2024-02-16T14:42:30;6.80;;;3.85;;
16314;SDS011;8266;52.150;4.768;2024-02-16T14:44:57;5.80;;;4.75;;
16314;SDS011;8266;52.150;4.768;2024-02-16T14:47:25;5.32;;;4.60;;
16314;SDS011;8266;52.150;4.768;2024-02-16T14:49:52;6.07;;;4.10;;
16314;SDS011;8266;52.150;4.768;2024-02-16T14:52:19;5.03;;;4.03;;
16314;SDS011;8266;52.150;4.768;2024-02-16T14:54:46;5.00;;;3.95;;
16314;SDS011;8266;52.150;4.768;2024-02-16T14:57:13;5.07;;;3.45;;
16314;SDS011;8266;52.150;4.768;2024-02-16T14:59:45;4.50;;;3.83;;
16314;SDS011;8266;52.150;4.768;2024-02-16T15:02:12;5.53;;;3.58;;
16314;SDS011;8266;52.150;4.768;2024-02-16T15:04:40;5.75;;;3.63;;
16314;SDS011;8266;52.150;4.768;2024-02-16T15:07:07;5.00;;;3.58;;